createdAt,value
2018-12-20T00:00:13.851Z,10.30
2018-12-20T00:01:13.903Z,11.50
2018-12-20T00:02:13.820Z,11.30
2018-12-20T00:03:13.941Z,10.80
2018-12-20T00:04:13.866Z,11.30
2018-12-20T00:05:13.836Z,10.80
2018-12-20T00:06:13.777Z,10.80
2018-12-20T00:07:13.767Z,11.30
2018-12-20T00:08:13.779Z,11.10
2018-12-20T00:09:13.829Z,11.40
2018-12-20T00:10:13.831Z,11.60
2018-12-20T00:11:13.818Z,11.20
2018-12-20T00:12:13.716Z,11.70
2018-12-20T00:13:13.755Z,11.10
2018-12-20T00:14:13.829Z,12.30
2018-12-20T00:15:13.835Z,11.60
2018-12-20T00:16:13.671Z,11.60
2018-12-20T00:17:13.661Z,12.10
2018-12-20T00:18:13.657Z,12.10
2018-12-20T00:19:13.677Z,11.80
2018-12-20T00:20:13.627Z,11.80
2018-12-20T00:21:13.651Z,11.70
2018-12-20T00:22:13.609Z,11.50
2018-12-20T00:23:13.602Z,11.40
2018-12-20T00:24:13.850Z,11.00
2018-12-20T00:25:13.589Z,11.70
2018-12-20T00:26:13.595Z,11.60
2018-12-20T00:27:13.661Z,12.30
2018-12-20T00:28:13.576Z,11.90
2018-12-20T00:29:13.531Z,11.70
2018-12-20T00:30:13.606Z,11.70
2018-12-20T00:31:13.775Z,11.60
2018-12-20T00:32:13.500Z,11.20
2018-12-20T00:33:13.489Z,11.70
2018-12-20T00:34:13.678Z,10.90
2018-12-20T00:35:13.469Z,11.30
2018-12-20T00:36:13.456Z,11.00
2018-12-20T00:37:13.442Z,11.10
2018-12-20T00:38:13.500Z,11.30
2018-12-20T00:39:13.537Z,11.10
2018-12-20T00:40:13.516Z,11.40
2018-12-20T00:41:13.439Z,11.80
2018-12-20T00:42:13.392Z,10.90
2018-12-20T00:43:13.508Z,11.50
2018-12-20T00:44:13.373Z,11.30
2018-12-20T00:45:13.417Z,11.50
2018-12-20T00:46:13.364Z,11.60
2018-12-20T00:47:13.411Z,11.70
2018-12-20T00:48:13.357Z,11.30
2018-12-20T00:49:13.405Z,11.60
2018-12-20T00:50:13.408Z,11.60
2018-12-20T00:51:13.338Z,11.90
2018-12-20T00:52:13.425Z,12.00
2018-12-20T00:53:13.270Z,12.30
2018-12-20T00:54:13.345Z,11.90
2018-12-20T00:55:13.255Z,12.30
2018-12-20T00:56:13.255Z,12.40
2018-12-20T00:57:13.225Z,11.70
2018-12-20T00:58:13.214Z,12.30
2018-12-20T00:59:13.267Z,11.00
2018-12-20T01:00:13.278Z,11.90
2018-12-20T01:01:13.292Z,11.70
2018-12-20T01:02:13.206Z,11.70
2018-12-20T01:03:13.179Z,12.00
2018-12-20T01:04:13.151Z,12.10
2018-12-20T01:05:13.219Z,12.20
2018-12-20T01:06:13.269Z,12.40
2018-12-20T01:07:13.159Z,12.10
2018-12-20T01:08:13.251Z,11.80
2018-12-20T01:09:13.208Z,12.20
2018-12-20T01:10:13.081Z,12.00
2018-12-20T01:11:13.091Z,11.90
2018-12-20T01:12:13.185Z,11.50
2018-12-20T01:13:13.053Z,11.50
2018-12-20T01:14:13.243Z,11.60
2018-12-20T01:15:13.164Z,11.40
2018-12-20T01:16:13.146Z,11.30
2018-12-20T01:17:13.102Z,10.90
2018-12-20T01:18:13.143Z,11.50
2018-12-20T01:19:13.010Z,11.60
2018-12-20T01:20:13.005Z,11.90
2018-12-20T01:21:13.020Z,11.90
2018-12-20T01:22:12.975Z,11.70
2018-12-20T01:23:12.957Z,12.10
2018-12-20T01:24:12.932Z,12.20
2018-12-20T01:25:12.924Z,12.00
2018-12-20T01:26:12.959Z,11.30
2018-12-20T01:27:12.964Z,11.60
2018-12-20T01:28:12.996Z,11.40
2018-12-20T01:29:12.924Z,11.80
2018-12-20T01:30:12.886Z,11.60
2018-12-20T01:31:12.987Z,11.10
2018-12-20T01:32:12.905Z,11.30
2018-12-20T01:33:12.980Z,11.10
2018-12-20T01:34:12.859Z,10.80
2018-12-20T01:35:12.820Z,11.60
2018-12-20T01:36:12.999Z,10.70
2018-12-20T01:37:12.829Z,10.90
2018-12-20T01:38:12.801Z,11.20
2018-12-20T01:39:12.912Z,10.60
2018-12-20T01:40:12.857Z,10.70
2018-12-20T01:41:12.755Z,10.90
2018-12-20T01:42:12.743Z,10.70
2018-12-20T01:43:12.853Z,10.30
2018-12-20T01:44:12.904Z,10.30
2018-12-20T01:45:12.808Z,10.50
2018-12-20T01:46:12.699Z,10.80
2018-12-20T01:47:12.767Z,10.00
2018-12-20T01:48:12.805Z,10.40
2018-12-20T01:49:12.659Z,10.30
2018-12-20T01:50:12.697Z,10.40
2018-12-20T01:51:12.728Z,10.60
2018-12-20T01:52:12.654Z,10.80
2018-12-20T01:53:12.737Z,10.90
2018-12-20T01:54:12.771Z,11.00
2018-12-20T01:55:12.778Z,10.90
2018-12-20T01:56:12.633Z,11.00
2018-12-20T01:57:12.668Z,11.00
2018-12-20T01:58:12.566Z,11.20
2018-12-20T01:59:12.602Z,10.90
2018-12-20T02:00:12.564Z,10.90
2018-12-20T02:01:12.649Z,11.20
2018-12-20T02:02:12.537Z,10.90
2018-12-20T02:03:12.548Z,10.90
2018-12-20T02:04:12.496Z,10.80
2018-12-20T02:05:12.713Z,11.10
2018-12-20T02:06:12.479Z,11.00
2018-12-20T02:07:12.493Z,11.00
2018-12-20T02:08:12.479Z,10.80
2018-12-20T02:09:12.628Z,11.40
2018-12-20T02:10:12.605Z,10.90
2018-12-20T02:11:12.425Z,11.00
2018-12-20T02:12:12.443Z,10.80
2018-12-20T02:13:12.523Z,11.60
2018-12-20T02:14:12.539Z,11.50
2018-12-20T02:15:12.386Z,11.30
2018-12-20T02:16:12.367Z,11.40
2018-12-20T02:17:12.358Z,11.20
2018-12-20T02:18:12.348Z,10.80
2018-12-20T02:19:12.358Z,10.50
2018-12-20T02:20:12.366Z,10.50
2018-12-20T02:21:12.353Z,10.00
2018-12-20T02:22:12.321Z,9.80
2018-12-20T02:23:12.443Z,9.60
2018-12-20T02:24:12.325Z,10.00
2018-12-20T02:25:12.270Z,10.00
2018-12-20T02:26:12.277Z,9.80
2018-12-20T02:27:12.293Z,9.70
2018-12-20T02:28:12.394Z,9.60
2018-12-20T02:29:12.322Z,9.90
2018-12-20T02:30:12.392Z,9.70
2018-12-20T02:31:12.253Z,9.30
2018-12-20T02:32:12.542Z,9.50
2018-12-20T02:33:12.183Z,9.70
2018-12-20T02:34:12.491Z,9.20
2018-12-20T02:35:12.267Z,9.60
2018-12-20T02:36:12.338Z,9.80
2018-12-20T02:37:12.144Z,9.50
2018-12-20T02:38:12.204Z,10.30
2018-12-20T02:39:12.359Z,9.70
2018-12-20T02:40:12.239Z,9.40
2018-12-20T02:41:12.118Z,9.60
2018-12-20T02:42:12.124Z,9.80
2018-12-20T02:43:12.076Z,9.10
2018-12-20T02:44:12.150Z,10.20
2018-12-20T02:45:12.078Z,9.60
2018-12-20T02:46:12.037Z,9.60
2018-12-20T02:47:12.142Z,10.00
2018-12-20T02:48:12.116Z,9.60
2018-12-20T02:49:12.139Z,9.20
2018-12-20T02:50:12.285Z,8.80
2018-12-20T02:51:12.040Z,8.50
2018-12-20T02:52:12.025Z,8.10
2018-12-20T02:53:12.151Z,8.60
2018-12-20T02:54:12.097Z,8.40
2018-12-20T02:55:11.944Z,8.50
2018-12-20T02:56:11.932Z,8.80
2018-12-20T02:57:11.928Z,9.10
2018-12-20T02:58:11.916Z,10.30
2018-12-20T02:59:11.936Z,9.90
2018-12-20T03:00:12.062Z,9.80
2018-12-20T03:01:11.902Z,10.30
2018-12-20T03:02:12.066Z,10.70
2018-12-20T03:03:11.974Z,10.60
2018-12-20T03:04:11.986Z,10.30
2018-12-20T03:05:11.948Z,10.10
2018-12-20T03:06:11.961Z,10.40
2018-12-20T03:07:12.146Z,10.40
2018-12-20T03:08:11.987Z,10.20
2018-12-20T03:09:11.796Z,10.10
2018-12-20T03:10:11.881Z,10.30
2018-12-20T03:11:11.944Z,9.50
2018-12-20T03:12:11.897Z,9.70
2018-12-20T03:13:11.864Z,9.80
2018-12-20T03:14:11.751Z,10.20
2018-12-20T03:15:19.726Z,9.50
2018-12-20T03:16:12.714Z,10.50
2018-12-20T03:17:11.850Z,9.70
2018-12-20T03:18:11.715Z,9.90
2018-12-20T03:19:11.723Z,10.90
2018-12-20T03:20:11.813Z,10.50
2018-12-20T03:21:11.716Z,9.90
2018-12-20T03:22:11.676Z,10.10
2018-12-20T03:23:11.671Z,10.30
2018-12-20T03:24:11.641Z,10.60
2018-12-20T03:25:11.669Z,10.00
2018-12-20T03:26:11.621Z,10.70
2018-12-20T03:27:11.602Z,10.50
2018-12-20T03:28:11.700Z,10.30
2018-12-20T03:29:11.624Z,10.50
2018-12-20T03:30:11.565Z,11.00
2018-12-20T03:31:11.746Z,10.60
2018-12-20T03:32:12.082Z,10.80
2018-12-20T03:33:12.295Z,10.70
2018-12-20T03:34:11.518Z,10.40
2018-12-20T03:35:11.751Z,10.50
2018-12-20T03:36:11.573Z,10.80
2018-12-20T03:37:11.489Z,10.10
2018-12-20T03:38:11.509Z,11.20
2018-12-20T03:39:11.618Z,10.70
2018-12-20T03:40:11.628Z,10.90
2018-12-20T03:41:11.567Z,11.20
2018-12-20T03:42:11.602Z,10.30
2018-12-20T03:43:11.420Z,10.50
2018-12-20T03:44:11.407Z,10.40
2018-12-20T03:45:13.122Z,10.50
2018-12-20T03:46:11.434Z,10.70
2018-12-20T03:47:11.394Z,10.90
2018-12-20T03:48:11.400Z,11.00
2018-12-20T03:49:11.476Z,10.10
2018-12-20T03:50:11.402Z,11.00
2018-12-20T03:51:11.523Z,10.80
2018-12-20T03:52:11.327Z,10.30
2018-12-20T03:53:11.326Z,9.70
2018-12-20T03:54:11.298Z,10.30
2018-12-20T03:55:11.344Z,9.60
2018-12-20T03:56:11.343Z,10.70
2018-12-20T03:57:11.445Z,10.90
2018-12-20T03:58:11.379Z,10.40
2018-12-20T03:59:11.248Z,11.00
2018-12-20T04:00:11.537Z,10.20
2018-12-20T04:01:11.244Z,10.80
2018-12-20T04:02:11.362Z,10.90
2018-12-20T04:03:11.205Z,10.50
2018-12-20T04:04:11.380Z,10.40
2018-12-20T04:05:11.177Z,11.10
2018-12-20T04:06:11.186Z,10.60
2018-12-20T04:07:11.268Z,11.50
2018-12-20T04:08:11.263Z,11.10
2018-12-20T04:09:11.153Z,10.60
2018-12-20T04:10:11.134Z,10.80
2018-12-20T04:11:11.157Z,10.40
2018-12-20T04:12:11.109Z,11.00
2018-12-20T04:13:11.160Z,10.90
2018-12-20T04:14:11.158Z,11.60
2018-12-20T04:15:11.127Z,11.40
2018-12-20T04:16:11.452Z,11.70
2018-12-20T04:17:11.351Z,11.60
2018-12-20T04:18:11.081Z,12.20
2018-12-20T04:19:11.075Z,12.70
2018-12-20T04:20:11.310Z,11.70
2018-12-20T04:21:11.021Z,11.10
2018-12-20T04:22:11.055Z,11.70
2018-12-20T04:23:10.986Z,12.30
2018-12-20T04:24:11.332Z,12.10
2018-12-20T04:25:10.961Z,12.00
2018-12-20T04:26:10.992Z,12.20
2018-12-20T04:27:10.980Z,11.60
2018-12-20T04:28:11.006Z,11.80
2018-12-20T04:29:10.923Z,11.30
2018-12-20T04:30:11.030Z,12.00
2018-12-20T04:31:10.905Z,11.60
2018-12-20T04:32:10.934Z,11.30
2018-12-20T04:33:10.917Z,11.90
2018-12-20T04:34:10.899Z,11.00
2018-12-20T04:35:10.880Z,12.00
2018-12-20T04:36:10.928Z,11.40
2018-12-20T04:37:10.834Z,11.70
2018-12-20T04:38:10.826Z,11.70
2018-12-20T04:39:10.865Z,11.60
2018-12-20T04:40:10.879Z,11.10
2018-12-20T04:41:10.837Z,12.00
2018-12-20T04:42:10.778Z,10.90
2018-12-20T04:43:11.050Z,11.10
2018-12-20T04:44:10.942Z,10.90
2018-12-20T04:45:10.901Z,11.10
2018-12-20T04:46:10.817Z,11.20
2018-12-20T04:47:10.722Z,10.50
2018-12-20T04:48:10.710Z,11.00
2018-12-20T04:49:10.707Z,10.60
2018-12-20T04:50:10.916Z,11.30
2018-12-20T04:51:10.775Z,10.80
2018-12-20T04:52:10.667Z,11.20
2018-12-20T04:53:10.661Z,11.00
2018-12-20T04:54:10.916Z,11.30
2018-12-20T04:55:10.761Z,10.90
2018-12-20T04:56:10.630Z,10.90
2018-12-20T04:57:10.632Z,11.30
2018-12-20T04:58:10.634Z,10.40
2018-12-20T04:59:10.774Z,10.60
2018-12-20T05:00:10.602Z,10.30
2018-12-20T05:01:10.940Z,10.80
2018-12-20T05:02:10.883Z,10.80
2018-12-20T05:03:10.610Z,10.70
2018-12-20T05:04:10.544Z,10.20
2018-12-20T05:05:10.829Z,9.70
2018-12-20T05:06:10.625Z,10.50
2018-12-20T05:07:10.601Z,10.10
2018-12-20T05:08:10.871Z,9.90
2018-12-20T05:09:10.622Z,10.30
2018-12-20T05:10:10.512Z,9.60
2018-12-20T05:11:10.675Z,10.00
2018-12-20T05:12:10.510Z,10.30
2018-12-20T05:13:10.597Z,10.20
2018-12-20T05:14:10.533Z,10.00
2018-12-20T05:15:10.611Z,9.70
2018-12-20T05:16:10.436Z,9.70
2018-12-20T05:17:10.394Z,9.30
2018-12-20T05:18:10.388Z,9.20
2018-12-20T05:19:10.498Z,9.90
2018-12-20T05:20:10.446Z,9.10
2018-12-20T05:21:10.579Z,9.00
2018-12-20T05:22:10.466Z,8.90
2018-12-20T05:23:10.423Z,9.10
2018-12-20T05:24:10.381Z,9.30
2018-12-20T05:25:10.334Z,9.60
2018-12-20T05:26:10.508Z,9.00
2018-12-20T05:27:10.537Z,9.40
2018-12-20T05:28:10.302Z,9.10
2018-12-20T05:29:10.295Z,8.90
2018-12-20T05:30:10.282Z,8.70
2018-12-20T05:31:10.245Z,9.00
2018-12-20T05:32:10.487Z,9.00
2018-12-20T05:33:10.234Z,8.80
2018-12-20T05:34:10.221Z,8.80
2018-12-20T05:35:10.210Z,8.40
2018-12-20T05:36:10.336Z,8.60
2018-12-20T05:37:10.222Z,8.30
2018-12-20T05:38:10.180Z,8.50
2018-12-20T05:39:10.288Z,8.60
2018-12-20T05:40:10.286Z,9.00
2018-12-20T05:41:10.220Z,8.60
2018-12-20T05:42:10.380Z,8.70
2018-12-20T05:43:10.116Z,8.30
2018-12-20T05:44:10.390Z,8.20
2018-12-20T05:45:10.101Z,8.00
2018-12-20T05:46:10.128Z,8.60
2018-12-20T05:47:10.294Z,7.70
2018-12-20T05:48:10.143Z,8.00
2018-12-20T05:49:10.061Z,8.00
2018-12-20T05:50:10.244Z,8.10
2018-12-20T05:51:10.029Z,8.30
2018-12-20T05:52:10.015Z,8.20
2018-12-20T05:53:10.011Z,8.00
2018-12-20T05:54:10.064Z,7.80
2018-12-20T05:55:10.035Z,7.90
2018-12-20T05:56:09.972Z,7.90
2018-12-20T05:57:09.991Z,8.40
2018-12-20T05:58:10.259Z,8.10
2018-12-20T05:59:09.999Z,8.40
2018-12-20T06:00:09.934Z,8.20
2018-12-20T06:01:10.143Z,8.80
2018-12-20T06:02:09.914Z,9.20
2018-12-20T06:03:09.936Z,9.20
2018-12-20T06:04:11.569Z,8.60
2018-12-20T06:05:09.907Z,8.90
2018-12-20T06:06:09.996Z,9.40
2018-12-20T06:07:09.880Z,9.60
2018-12-20T06:08:09.847Z,8.40
2018-12-20T06:09:09.874Z,9.50
2018-12-20T06:10:09.928Z,10.10
2018-12-20T06:11:10.008Z,8.60
2018-12-20T06:12:09.870Z,9.70
2018-12-20T06:13:09.930Z,10.00
2018-12-20T06:14:09.824Z,10.40
2018-12-20T06:15:09.819Z,9.80
2018-12-20T06:16:13.063Z,10.70
2018-12-20T06:17:09.894Z,10.50
2018-12-20T06:18:09.777Z,9.20
2018-12-20T06:19:09.839Z,9.60
2018-12-20T06:20:09.792Z,8.50
2018-12-20T06:21:09.891Z,9.30
2018-12-20T06:22:09.797Z,9.30
2018-12-20T06:23:09.680Z,9.30
2018-12-20T06:24:09.698Z,9.00
2018-12-20T06:25:09.661Z,8.40
2018-12-20T06:26:09.650Z,7.70
2018-12-20T06:27:09.655Z,7.80
2018-12-20T06:28:09.665Z,8.60
2018-12-20T06:29:09.620Z,8.20
2018-12-20T06:30:09.605Z,7.70
2018-12-20T06:31:09.598Z,7.80
2018-12-20T06:32:09.586Z,9.00
2018-12-20T06:33:09.568Z,8.20
2018-12-20T06:34:09.582Z,8.30
2018-12-20T06:35:09.584Z,7.50
2018-12-20T06:36:09.584Z,6.70
2018-12-20T06:37:09.533Z,6.90
2018-12-20T06:38:09.543Z,7.50
2018-12-20T06:39:09.509Z,7.30
2018-12-20T06:40:09.500Z,7.40
2018-12-20T06:41:09.488Z,8.70
2018-12-20T06:42:09.500Z,8.60
2018-12-20T06:43:09.517Z,9.00
2018-12-20T06:44:09.510Z,9.80
2018-12-20T06:45:09.460Z,10.30
2018-12-20T06:46:09.533Z,10.80
2018-12-20T06:47:09.419Z,10.60
2018-12-20T06:48:09.408Z,10.30
2018-12-20T06:49:10.318Z,9.50
2018-12-20T06:50:09.424Z,9.80
2018-12-20T06:51:09.397Z,9.40
2018-12-20T06:52:09.372Z,9.50
2018-12-20T06:53:09.374Z,9.00
2018-12-20T06:54:09.346Z,9.60
2018-12-20T06:55:09.333Z,10.20
2018-12-20T06:56:09.352Z,10.30
2018-12-20T06:57:09.318Z,9.80
2018-12-20T06:58:09.303Z,10.00
2018-12-20T06:59:09.300Z,10.00
2018-12-20T07:00:09.279Z,9.10
2018-12-20T07:01:09.274Z,9.80
2018-12-20T07:02:09.284Z,9.80
2018-12-20T07:03:09.249Z,9.30
2018-12-20T07:04:09.248Z,9.70
2018-12-20T07:05:09.222Z,9.70
2018-12-20T07:06:09.213Z,10.10
2018-12-20T07:07:09.204Z,9.40
2018-12-20T07:08:09.212Z,9.30
2018-12-20T07:09:09.185Z,9.80
2018-12-20T07:10:09.189Z,10.00
2018-12-20T07:11:09.161Z,10.50
2018-12-20T07:12:09.158Z,10.40
2018-12-20T07:13:09.154Z,9.30
2018-12-20T07:14:09.149Z,10.50
2018-12-20T07:15:09.121Z,9.90
2018-12-20T07:16:09.121Z,9.90
2018-12-20T07:17:09.093Z,10.40
2018-12-20T07:18:09.087Z,10.50
2018-12-20T07:19:09.097Z,9.90
2018-12-20T07:20:09.060Z,10.30
2018-12-20T07:21:09.060Z,10.80
2018-12-20T07:22:09.043Z,9.90
2018-12-20T07:23:09.042Z,11.20
2018-12-20T07:24:09.025Z,9.80
2018-12-20T07:25:09.026Z,9.80
2018-12-20T07:26:08.997Z,10.10
2018-12-20T07:27:08.987Z,10.80
2018-12-20T07:28:08.973Z,11.20
2018-12-20T07:29:08.971Z,10.50
2018-12-20T07:30:08.989Z,10.50
2018-12-20T07:31:08.944Z,10.30
2018-12-20T07:32:08.944Z,10.00
2018-12-20T07:33:08.939Z,9.90
2018-12-20T07:34:08.953Z,10.30
2018-12-20T07:35:08.905Z,9.80
2018-12-20T07:36:08.920Z,9.60
2018-12-20T07:37:08.963Z,10.90
2018-12-20T07:38:08.921Z,10.70
2018-12-20T07:39:08.854Z,10.70
2018-12-20T07:40:08.845Z,12.00
2018-12-20T07:41:08.884Z,10.60
2018-12-20T07:42:08.856Z,10.80
2018-12-20T07:43:08.818Z,12.20
2018-12-20T07:44:08.812Z,10.50
2018-12-20T07:45:08.793Z,10.90
2018-12-20T07:46:08.840Z,10.50
2018-12-20T07:47:08.776Z,13.10
2018-12-20T07:48:08.769Z,12.80
2018-12-20T07:49:08.750Z,10.80
2018-12-20T07:50:08.737Z,12.50
2018-12-20T07:51:08.751Z,11.30
2018-12-20T07:52:08.736Z,13.50
2018-12-20T07:53:08.715Z,13.80
2018-12-20T07:54:08.792Z,13.50
2018-12-20T07:55:08.690Z,13.60
2018-12-20T07:56:08.675Z,12.30
2018-12-20T07:57:08.684Z,12.20
2018-12-20T07:58:08.649Z,12.10
2018-12-20T07:59:08.639Z,13.80
2018-12-20T08:00:08.630Z,11.40
2018-12-20T08:01:08.625Z,10.70
2018-12-20T08:02:08.613Z,9.60
2018-12-20T08:03:08.612Z,12.10
2018-12-20T08:04:08.599Z,12.80
2018-12-20T08:05:08.583Z,11.40
2018-12-20T08:06:08.573Z,11.50
2018-12-20T08:07:08.567Z,10.30
2018-12-20T08:08:08.575Z,10.40
2018-12-20T08:09:08.532Z,9.70
2018-12-20T08:10:08.546Z,9.60
2018-12-20T08:11:08.551Z,9.20
2018-12-20T08:12:08.499Z,9.00
2018-12-20T08:13:08.493Z,8.40
2018-12-20T08:14:08.494Z,8.30
2018-12-20T08:15:08.477Z,8.50
2018-12-20T08:16:09.268Z,8.50
2018-12-20T08:17:08.466Z,8.40
2018-12-20T08:18:08.432Z,7.40
2018-12-20T08:19:08.428Z,7.00
2018-12-20T08:20:08.421Z,7.80
2018-12-20T08:21:08.408Z,7.60
2018-12-20T08:22:08.407Z,6.90
2018-12-20T08:23:08.378Z,6.90
2018-12-20T08:24:08.401Z,7.20
2018-12-20T08:25:08.361Z,7.60
2018-12-20T08:26:08.358Z,6.80
2018-12-20T08:27:08.344Z,6.30
2018-12-20T08:28:08.329Z,6.20
2018-12-20T08:29:08.382Z,6.20
2018-12-20T08:30:08.321Z,6.00
2018-12-20T08:31:08.294Z,5.60
2018-12-20T08:32:08.283Z,5.40
2018-12-20T08:33:08.315Z,5.10
2018-12-20T08:34:08.291Z,4.30
2018-12-20T08:35:08.257Z,4.80
2018-12-20T08:36:08.251Z,5.10
2018-12-20T08:37:08.231Z,4.90
2018-12-20T08:38:08.222Z,5.20
2018-12-20T08:39:08.249Z,4.70
2018-12-20T08:40:08.218Z,4.80
2018-12-20T08:41:09.164Z,4.60
2018-12-20T08:42:08.172Z,4.30
2018-12-20T08:43:08.162Z,4.50
2018-12-20T08:44:08.180Z,4.80
2018-12-20T08:45:08.146Z,4.50
2018-12-20T08:46:08.144Z,4.50
2018-12-20T08:47:08.124Z,4.60
2018-12-20T08:48:08.112Z,5.00
2018-12-20T08:49:08.099Z,4.50
2018-12-20T08:50:08.111Z,4.90
2018-12-20T08:51:08.081Z,4.50
2018-12-20T08:52:08.068Z,4.90
2018-12-20T08:53:08.055Z,5.50
2018-12-20T08:54:08.045Z,4.80
2018-12-20T08:55:08.031Z,5.10
2018-12-20T08:56:08.047Z,5.10
2018-12-20T08:57:08.019Z,5.30
2018-12-20T08:58:08.040Z,5.30
2018-12-20T08:59:07.999Z,4.60
2018-12-20T09:00:08.015Z,4.60
2018-12-20T09:01:08.047Z,4.70
2018-12-20T09:02:07.982Z,4.70
2018-12-20T09:03:07.949Z,4.90
2018-12-20T09:04:07.945Z,4.70
2018-12-20T09:05:07.936Z,5.10
2018-12-20T09:06:07.923Z,4.80
2018-12-20T09:07:07.903Z,4.20
2018-12-20T09:08:07.939Z,4.40
2018-12-20T09:09:07.908Z,4.60
2018-12-20T09:10:07.875Z,4.70
2018-12-20T09:11:07.864Z,4.90
2018-12-20T09:12:07.853Z,4.90
2018-12-20T09:13:09.649Z,4.30
2018-12-20T09:14:07.828Z,4.20
2018-12-20T09:15:07.879Z,4.50
2018-12-20T09:16:07.808Z,4.30
2018-12-20T09:17:07.821Z,4.10
2018-12-20T09:18:07.797Z,3.60
2018-12-20T09:19:07.777Z,3.50
2018-12-20T09:20:07.785Z,4.00
2018-12-20T09:21:07.777Z,3.70
2018-12-20T09:22:07.737Z,3.60
2018-12-20T09:23:07.739Z,3.40
2018-12-20T09:24:07.722Z,3.50
2018-12-20T09:25:07.724Z,3.50
2018-12-20T09:26:07.695Z,3.40
2018-12-20T09:27:07.706Z,3.40
2018-12-20T09:28:07.675Z,3.70
2018-12-20T09:29:07.667Z,3.10
2018-12-20T09:30:07.657Z,3.30
2018-12-20T09:31:07.651Z,3.10
2018-12-20T09:32:07.651Z,3.10
2018-12-20T09:33:07.688Z,3.00
2018-12-20T09:34:07.640Z,2.90
2018-12-20T09:35:07.603Z,3.00
2018-12-20T09:36:07.589Z,3.20
2018-12-20T09:37:07.638Z,3.10
2018-12-20T09:38:07.573Z,3.20
2018-12-20T09:39:07.582Z,2.80
2018-12-20T09:40:07.585Z,3.10
2018-12-20T09:41:07.538Z,3.20
2018-12-20T09:42:07.533Z,3.10
2018-12-20T09:43:07.534Z,2.90
2018-12-20T09:44:07.504Z,3.00
2018-12-20T09:45:07.499Z,2.70
2018-12-20T09:46:07.507Z,2.70
2018-12-20T09:47:11.654Z,2.80
2018-12-20T09:48:07.461Z,3.00
2018-12-20T09:49:07.451Z,2.60
2018-12-20T09:50:07.658Z,2.90
2018-12-20T09:51:07.432Z,3.00
2018-12-20T09:52:07.495Z,2.70
2018-12-20T09:53:07.408Z,2.60
2018-12-20T09:54:07.397Z,2.60
2018-12-20T09:55:07.405Z,2.30
2018-12-20T09:56:07.384Z,2.50
2018-12-20T09:57:07.362Z,2.30
2018-12-20T09:58:07.374Z,2.60
2018-12-20T09:59:07.341Z,2.40
2018-12-20T10:00:07.354Z,2.40
2018-12-20T10:01:07.319Z,2.50
2018-12-20T10:02:07.318Z,2.70
2018-12-20T10:03:07.304Z,2.80
2018-12-20T10:04:07.312Z,2.20
2018-12-20T10:05:07.294Z,2.20
2018-12-20T10:06:07.276Z,2.50
2018-12-20T10:07:07.259Z,2.20
2018-12-20T10:08:07.268Z,1.90
2018-12-20T10:09:08.323Z,2.10
2018-12-20T10:10:07.226Z,2.10
2018-12-20T10:11:07.208Z,2.00
2018-12-20T10:12:07.223Z,2.10
2018-12-20T10:13:07.190Z,2.10
2018-12-20T10:14:07.184Z,2.30
2018-12-20T10:15:07.246Z,1.80
2018-12-20T10:16:07.157Z,2.40
2018-12-20T10:17:07.147Z,2.10
2018-12-20T10:18:07.130Z,1.90
2018-12-20T10:19:07.137Z,2.10
2018-12-20T10:20:07.116Z,1.90
2018-12-20T10:21:07.125Z,2.20
2018-12-20T10:22:07.103Z,2.10
2018-12-20T10:23:07.085Z,2.50
2018-12-20T10:24:07.088Z,2.10
2018-12-20T10:25:07.069Z,2.30
2018-12-20T10:26:07.041Z,2.20
2018-12-20T10:27:07.041Z,2.20
2018-12-20T10:28:07.028Z,2.30
2018-12-20T10:29:07.043Z,2.30
2018-12-20T10:30:07.005Z,2.60
2018-12-20T10:31:06.988Z,2.20
2018-12-20T10:32:06.979Z,2.30
2018-12-20T10:33:06.972Z,2.10
2018-12-20T10:34:06.965Z,2.20
2018-12-20T10:35:06.969Z,2.50
2018-12-20T10:36:06.945Z,2.10
2018-12-20T10:37:06.925Z,2.10
2018-12-20T10:38:06.911Z,2.10
2018-12-20T10:39:06.919Z,2.30
2018-12-20T10:40:06.918Z,2.40
2018-12-20T10:41:06.958Z,2.20
2018-12-20T10:42:06.875Z,2.10
2018-12-20T10:43:06.944Z,2.00
2018-12-20T10:44:06.847Z,2.20
2018-12-20T10:45:06.839Z,2.00
2018-12-20T10:46:06.865Z,2.00
2018-12-20T10:47:06.861Z,2.00
2018-12-20T10:48:06.825Z,2.10
2018-12-20T10:49:06.818Z,2.10
2018-12-20T10:50:06.783Z,2.00
2018-12-20T10:51:06.772Z,2.00
2018-12-20T10:52:06.764Z,2.00
2018-12-20T10:53:06.761Z,1.80
2018-12-20T10:54:06.750Z,1.80
2018-12-20T10:55:06.758Z,1.80
2018-12-20T10:56:06.721Z,1.60
2018-12-20T10:57:06.709Z,1.70
2018-12-20T10:58:06.693Z,1.70
2018-12-20T10:59:06.705Z,2.00
2018-12-20T11:00:06.732Z,1.70
2018-12-20T11:01:06.718Z,1.80
2018-12-20T11:02:06.650Z,1.90
2018-12-20T11:03:06.644Z,1.80
2018-12-20T11:04:06.628Z,1.80
2018-12-20T11:05:06.622Z,1.90
2018-12-20T11:06:06.614Z,2.00
2018-12-20T11:07:06.648Z,1.80
2018-12-20T11:08:06.638Z,1.90
2018-12-20T11:09:06.574Z,1.90
2018-12-20T11:10:06.563Z,1.90
2018-12-20T11:11:06.560Z,2.30
2018-12-20T11:12:06.542Z,2.10
2018-12-20T11:13:06.558Z,1.90
2018-12-20T11:14:06.532Z,2.10
2018-12-20T11:15:06.511Z,1.80
2018-12-20T11:16:06.498Z,2.00
2018-12-20T11:17:06.592Z,1.90
2018-12-20T11:18:06.499Z,1.80
2018-12-20T11:19:06.470Z,1.90
2018-12-20T11:20:06.476Z,2.00
2018-12-20T11:21:06.444Z,1.90
2018-12-20T11:22:06.458Z,1.90
2018-12-20T11:23:06.437Z,2.00
2018-12-20T11:24:06.417Z,2.00
2018-12-20T11:25:06.404Z,1.90
2018-12-20T11:26:06.418Z,1.60
2018-12-20T11:27:06.382Z,1.80
2018-12-20T11:28:06.369Z,1.80
2018-12-20T11:29:06.362Z,1.80
2018-12-20T11:30:06.350Z,2.10
2018-12-20T11:31:06.338Z,1.70
2018-12-20T11:32:06.370Z,2.20
2018-12-20T11:33:06.316Z,2.00
2018-12-20T11:34:06.301Z,1.80
2018-12-20T11:35:06.291Z,1.90
2018-12-20T11:36:06.280Z,1.80
2018-12-20T11:37:06.274Z,1.50
2018-12-20T11:38:06.305Z,1.50
2018-12-20T11:39:08.514Z,1.60
2018-12-20T11:40:06.239Z,1.60
2018-12-20T11:41:06.238Z,1.60
2018-12-20T11:42:06.211Z,1.50
2018-12-20T11:43:06.229Z,1.50
2018-12-20T11:44:06.192Z,1.60
2018-12-20T11:45:06.199Z,1.70
2018-12-20T11:46:06.180Z,1.70
2018-12-20T11:47:06.159Z,1.50
2018-12-20T11:48:06.149Z,1.70
2018-12-20T11:49:06.168Z,1.70
2018-12-20T11:50:06.135Z,1.80
2018-12-20T11:51:06.121Z,1.80
2018-12-20T11:52:06.110Z,2.00
2018-12-20T11:53:06.198Z,2.00
2018-12-20T11:54:06.081Z,1.80
2018-12-20T11:55:06.103Z,2.00
2018-12-20T11:56:06.071Z,2.00
2018-12-20T11:57:06.052Z,1.80
2018-12-20T11:58:06.043Z,1.70
2018-12-20T11:59:06.038Z,1.90
2018-12-20T12:00:06.020Z,1.70
2018-12-20T12:01:06.053Z,1.70
2018-12-20T12:02:06.001Z,1.60
2018-12-20T12:03:05.993Z,1.50
2018-12-20T12:04:05.979Z,1.70
2018-12-20T12:05:05.967Z,1.80
2018-12-20T12:06:05.982Z,1.70
2018-12-20T12:07:05.988Z,1.50
2018-12-20T12:08:05.934Z,1.80
2018-12-20T12:09:05.922Z,1.60
2018-12-20T12:10:05.906Z,1.60
2018-12-20T12:11:05.922Z,1.70
2018-12-20T12:12:05.890Z,1.90
2018-12-20T12:13:05.880Z,1.80
2018-12-20T12:14:05.885Z,1.80
2018-12-20T12:15:05.858Z,2.00
2018-12-20T12:16:06.893Z,1.70
2018-12-20T12:17:05.848Z,1.70
2018-12-20T12:18:05.823Z,1.90
2018-12-20T12:19:05.814Z,1.50
2018-12-20T12:20:05.813Z,1.80
2018-12-20T12:21:05.792Z,1.80
2018-12-20T12:22:05.804Z,1.90
2018-12-20T12:23:05.766Z,1.40
2018-12-20T12:24:05.758Z,1.80
2018-12-20T12:25:05.748Z,1.80
2018-12-20T12:26:05.756Z,1.70
2018-12-20T12:27:05.737Z,1.70
2018-12-20T12:28:05.733Z,1.50
2018-12-20T12:29:05.705Z,1.70
2018-12-20T12:30:05.689Z,1.50
2018-12-20T12:31:05.704Z,1.50
2018-12-20T12:32:05.669Z,1.70
2018-12-20T12:33:05.719Z,1.40
2018-12-20T12:34:05.653Z,1.50
2018-12-20T12:35:05.635Z,1.60
2018-12-20T12:36:05.628Z,1.70
2018-12-20T12:37:05.636Z,1.40
2018-12-20T12:38:05.610Z,1.80
2018-12-20T12:39:05.603Z,1.60
2018-12-20T12:40:05.593Z,1.70
2018-12-20T12:41:05.640Z,1.60
2018-12-20T12:42:06.340Z,1.60
2018-12-20T12:43:05.548Z,1.80
2018-12-20T12:44:05.541Z,1.80
2018-12-20T12:45:05.546Z,1.90
2018-12-20T12:46:05.528Z,1.80
2018-12-20T12:47:05.539Z,1.50
2018-12-20T12:48:05.513Z,1.80
2018-12-20T12:49:05.620Z,1.70
2018-12-20T12:50:05.477Z,1.80
2018-12-20T12:51:05.467Z,1.90
2018-12-20T12:52:05.479Z,1.90
2018-12-20T12:53:05.443Z,2.20
2018-12-20T12:54:05.427Z,1.90
2018-12-20T12:55:05.442Z,1.80
2018-12-20T12:56:05.407Z,2.10
2018-12-20T12:57:05.399Z,1.80
2018-12-20T12:58:05.419Z,2.10
2018-12-20T12:59:05.383Z,2.00
2018-12-20T13:00:05.366Z,1.90
2018-12-20T13:01:05.353Z,2.10
2018-12-20T13:02:05.344Z,1.90
2018-12-20T13:03:05.330Z,2.10
2018-12-20T13:04:05.339Z,2.00
2018-12-20T13:05:05.330Z,1.90
2018-12-20T13:06:05.302Z,1.80
2018-12-20T13:07:05.284Z,1.70